createdAt,value
2023-02-03T00:00:31.817Z,2.40
2023-02-03T00:02:58.766Z,2.35
2023-02-03T00:07:52.372Z,2.45
2023-02-03T00:10:21.412Z,2.92
2023-02-03T00:12:56.219Z,2.60
2023-02-03T00:15:23.281Z,2.65
2023-02-03T00:17:50.008Z,2.08
2023-02-03T00:20:16.918Z,2.35
2023-02-03T00:22:43.586Z,2.15
2023-02-03T00:27:37.433Z,1.58
2023-02-03T00:30:05.077Z,1.90
2023-02-03T00:32:32.057Z,1.90
2023-02-03T00:34:58.819Z,2.00
2023-02-03T00:37:25.528Z,1.75
2023-02-03T00:42:18.913Z,2.03
2023-02-03T00:44:45.600Z,2.05
2023-02-03T00:47:12.283Z,3.13
2023-02-03T00:52:05.696Z,2.67
2023-02-03T00:54:33.717Z,2.70
2023-02-03T00:57:00.573Z,2.38
2023-02-03T01:01:53.962Z,2.30
2023-02-03T01:06:47.250Z,2.13
2023-02-03T01:09:13.995Z,1.70
2023-02-03T01:14:07.863Z,2.20
2023-02-03T01:16:38.147Z,1.80
2023-02-03T01:19:05.523Z,1.70
2023-02-03T01:21:32.370Z,1.65
2023-02-03T01:26:26.624Z,1.45
2023-02-03T01:28:58.384Z,2.83
2023-02-03T01:31:28.760Z,1.85
2023-02-03T01:33:56.221Z,1.80
2023-02-03T01:36:24.964Z,1.60
2023-02-03T01:38:51.666Z,1.73
2023-02-03T01:43:50.029Z,1.52
2023-02-03T01:46:25.752Z,1.80
2023-02-03T01:48:55.631Z,2.35
2023-02-03T01:51:24.493Z,2.00
2023-02-03T01:53:53.955Z,1.95
2023-02-03T01:56:21.834Z,2.28
2023-02-03T01:58:50.725Z,2.95
2023-02-03T02:01:19.613Z,2.25
2023-02-03T02:03:55.830Z,1.63
2023-02-03T02:06:22.630Z,3.22
2023-02-03T02:11:20.204Z,2.40
2023-02-03T02:13:48.469Z,2.17
2023-02-03T02:16:40.504Z,2.30
2023-02-03T02:19:26.927Z,1.85
2023-02-03T02:22:20.013Z,1.80
2023-02-03T02:25:05.604Z,1.65
2023-02-03T02:28:00.869Z,2.40
2023-02-03T02:30:35.680Z,1.70
2023-02-03T02:33:10.914Z,2.05
2023-02-03T02:35:47.454Z,2.38
2023-02-03T02:38:25.836Z,1.83
2023-02-03T02:41:10.802Z,3.78
2023-02-03T02:43:45.886Z,2.00
2023-02-03T02:46:27.280Z,1.98
2023-02-03T02:49:28.656Z,1.48
2023-02-03T02:51:57.514Z,2.28
2023-02-03T02:54:26.548Z,2.83
2023-02-03T02:56:57.865Z,2.08
2023-02-03T02:59:24.891Z,2.15
2023-02-03T03:01:51.982Z,1.85
2023-02-03T03:04:24.652Z,2.00
2023-02-03T03:07:03.469Z,2.20
2023-02-03T03:09:37.107Z,2.38
2023-02-03T03:12:15.587Z,2.33
2023-02-03T03:15:00.827Z,3.10
2023-02-03T03:17:37.395Z,2.60
2023-02-03T03:20:08.731Z,2.28
2023-02-03T03:22:39.499Z,2.25
2023-02-03T03:25:18.944Z,2.20
2023-02-03T03:27:52.009Z,2.22
2023-02-03T03:30:23.448Z,1.92
2023-02-03T03:32:51.018Z,1.98
2023-02-03T03:35:18.105Z,1.73
2023-02-03T03:37:56.124Z,2.20
2023-02-03T03:40:40.915Z,2.20
2023-02-03T03:43:15.802Z,1.85
2023-02-03T03:45:55.741Z,1.67
2023-02-03T03:48:31.717Z,2.30
2023-02-03T03:51:28.078Z,1.92
2023-02-03T03:53:57.821Z,2.88
2023-02-03T03:56:30.212Z,2.78
2023-02-03T03:59:01.067Z,2.20
2023-02-03T04:01:29.503Z,2.08
2023-02-03T04:04:00.823Z,1.60
2023-02-03T04:06:27.712Z,2.30
2023-02-03T04:08:54.574Z,2.25
2023-02-03T04:11:39.886Z,1.98
2023-02-03T04:14:06.620Z,3.28
2023-02-03T04:19:00.311Z,1.83
2023-02-03T04:21:27.143Z,1.67
2023-02-03T04:26:20.364Z,1.80
2023-02-03T04:28:47.056Z,2.05
2023-02-03T04:31:14.229Z,1.95
2023-02-03T04:33:41.065Z,1.50
2023-02-03T04:38:34.726Z,2.15
2023-02-03T04:43:28.036Z,1.92
2023-02-03T04:48:21.460Z,4.28
2023-02-03T04:50:48.160Z,2.83
2023-02-03T04:58:12.831Z,2.17
2023-02-03T05:00:39.511Z,2.40
2023-02-03T05:05:32.886Z,2.33
2023-02-03T05:07:59.535Z,2.17
2023-02-03T05:10:26.560Z,2.30
2023-02-03T05:12:53.402Z,2.00
2023-02-03T05:17:46.718Z,1.85
2023-02-03T05:22:40.102Z,2.53
2023-02-03T05:27:33.656Z,2.90
2023-02-03T05:30:00.319Z,2.40
2023-02-03T05:34:53.715Z,1.92
2023-02-03T05:37:20.339Z,2.10
2023-02-03T05:39:47.008Z,2.08
2023-02-03T05:42:13.797Z,2.05
2023-02-03T05:47:07.159Z,2.25
2023-02-03T05:52:00.473Z,1.95
2023-02-03T05:56:53.984Z,1.70
2023-02-03T06:01:47.341Z,1.42
2023-02-03T06:06:40.682Z,2.22
2023-02-03T06:09:09.139Z,2.88
2023-02-03T06:11:36.446Z,1.98
2023-02-03T06:14:04.373Z,2.30
2023-02-03T06:16:31.260Z,2.45
2023-02-03T06:18:59.495Z,3.10
2023-02-03T06:21:26.515Z,2.47
2023-02-03T06:23:53.299Z,2.25
2023-02-03T06:28:46.973Z,2.47
2023-02-03T06:33:40.323Z,2.58
2023-02-03T06:36:07.269Z,3.33
2023-02-03T06:38:33.972Z,2.97
2023-02-03T06:43:27.376Z,2.97
2023-02-03T06:48:20.819Z,2.22
2023-02-03T06:53:15.733Z,2.08
2023-02-03T06:55:42.575Z,2.30
2023-02-03T07:00:35.775Z,2.70
2023-02-03T07:03:03.049Z,2.70
2023-02-03T07:05:29.873Z,2.17
2023-02-03T07:10:23.344Z,2.13
2023-02-03T07:12:51.806Z,1.73
2023-02-03T07:15:19.037Z,2.17
2023-02-03T07:17:54.175Z,1.92
2023-02-03T07:20:22.340Z,3.30
2023-02-03T07:22:56.671Z,2.70
2023-02-03T07:25:24.088Z,2.47
2023-02-03T07:27:50.846Z,2.88
2023-02-03T07:30:17.622Z,2.53
2023-02-03T07:35:18.078Z,3.38
2023-02-03T07:37:45.070Z,3.28
2023-02-03T07:40:13.336Z,2.40
2023-02-03T07:42:47.814Z,3.05
2023-02-03T07:45:16.399Z,2.40
2023-02-03T07:47:43.706Z,2.38
2023-02-03T07:50:12.236Z,2.25
2023-02-03T07:52:39.183Z,2.28
2023-02-03T07:55:06.230Z,2.00
2023-02-03T07:57:32.989Z,1.80
2023-02-03T08:02:26.540Z,1.52
2023-02-03T08:04:53.417Z,2.65
2023-02-03T08:07:20.179Z,1.42
2023-02-03T08:12:13.482Z,1.90
2023-02-03T08:17:06.754Z,1.90
2023-02-03T08:19:33.999Z,1.90
2023-02-03T08:22:01.050Z,1.50
2023-02-03T08:24:27.738Z,1.90
2023-02-03T08:26:54.385Z,1.73
2023-02-03T08:29:21.159Z,1.05
2023-02-03T08:34:14.745Z,2.05
2023-02-03T08:36:41.395Z,1.83
2023-02-03T08:39:08.097Z,1.55
2023-02-03T08:44:01.862Z,1.58
2023-02-03T08:46:28.818Z,1.30
2023-02-03T08:48:57.074Z,1.30
2023-02-03T08:51:24.590Z,2.13
2023-02-03T08:53:51.911Z,1.98
2023-02-03T08:56:18.639Z,1.50
2023-02-03T09:01:15.813Z,1.65
2023-02-03T09:03:43.046Z,1.33
2023-02-03T09:06:13.358Z,1.08
2023-02-03T09:08:40.116Z,1.27
2023-02-03T09:13:38.764Z,1.10
2023-02-03T09:16:07.722Z,1.42
2023-02-03T09:18:34.747Z,1.80
2023-02-03T09:21:03.391Z,1.35
2023-02-03T09:23:30.637Z,2.10
2023-02-03T09:26:05.786Z,1.23
2023-02-03T09:28:33.512Z,1.40
2023-02-03T09:31:04.784Z,1.30
2023-02-03T09:33:31.627Z,1.58
2023-02-03T09:38:26.675Z,1.80
2023-02-03T09:41:10.658Z,1.20
2023-02-03T09:43:52.911Z,1.98
2023-02-03T09:46:24.013Z,1.50
2023-02-03T09:48:56.545Z,1.10
2023-02-03T09:51:29.959Z,1.23
2023-02-03T09:54:15.746Z,1.45
2023-02-03T09:56:49.986Z,1.35
2023-02-03T09:59:16.780Z,0.80
2023-02-03T10:04:35.782Z,0.75
2023-02-03T10:07:43.311Z,1.00
2023-02-03T10:10:22.674Z,1.10
2023-02-03T10:13:14.676Z,1.00
2023-02-03T10:16:06.620Z,0.90
2023-02-03T10:18:38.273Z,1.00
2023-02-03T10:21:16.236Z,0.60
2023-02-03T10:23:45.619Z,0.90
2023-02-03T10:26:21.602Z,0.70
2023-02-03T10:28:54.330Z,0.95
2023-02-03T10:31:23.770Z,1.00
2023-02-03T10:34:08.240Z,0.90
2023-02-03T10:36:57.432Z,1.08
2023-02-03T10:39:39.877Z,1.25
2023-02-03T10:42:08.618Z,0.77
2023-02-03T10:44:42.957Z,1.00
2023-02-03T10:47:15.862Z,0.80
2023-02-03T10:49:43.519Z,0.75
2023-02-03T10:52:29.058Z,0.90
2023-02-03T10:54:56.441Z,0.93
2023-02-03T10:57:23.668Z,0.85
2023-02-03T10:59:50.379Z,0.90
2023-02-03T11:02:30.739Z,0.65
2023-02-03T11:05:16.270Z,0.98
2023-02-03T11:07:44.182Z,0.75
2023-02-03T11:10:40.796Z,0.77
2023-02-03T11:13:23.511Z,0.90
2023-02-03T11:15:58.345Z,1.20
2023-02-03T11:18:40.059Z,0.60
2023-02-03T11:21:31.181Z,0.85
2023-02-03T11:24:09.503Z,0.60
2023-02-03T11:26:42.944Z,0.60
2023-02-03T11:29:31.335Z,1.15
2023-02-03T11:32:02.301Z,0.88
2023-02-03T11:34:33.216Z,0.68
2023-02-03T11:37:31.089Z,0.82
2023-02-03T11:40:15.636Z,0.95
2023-02-03T11:42:45.949Z,0.70
2023-02-03T11:45:17.215Z,0.60
2023-02-03T11:47:49.502Z,1.10
2023-02-03T11:50:38.339Z,0.90
2023-02-03T11:53:24.248Z,1.15
2023-02-03T11:56:20.318Z,0.95
2023-02-03T11:59:05.682Z,0.88
2023-02-03T12:01:47.260Z,1.42
2023-02-03T12:04:37.235Z,0.85
2023-02-03T12:07:32.063Z,1.20
2023-02-03T12:10:09.191Z,1.45
2023-02-03T12:12:51.325Z,0.90
2023-02-03T12:16:11.578Z,1.00
2023-02-03T12:19:11.486Z,1.35
2023-02-03T12:21:52.315Z,1.33
2023-02-03T12:24:33.399Z,1.63
2023-02-03T12:27:37.734Z,1.30
2023-02-03T12:30:24.417Z,1.42
2023-02-03T12:33:20.749Z,1.75
2023-02-03T12:36:07.974Z,1.15
2023-02-03T12:38:58.702Z,1.17
2023-02-03T12:41:45.435Z,1.38
2023-02-03T12:44:21.962Z,1.30
2023-02-03T12:47:03.483Z,1.00
2023-02-03T12:49:59.013Z,1.05
2023-02-03T12:52:31.406Z,1.55
2023-02-03T12:55:05.870Z,1.13
2023-02-03T12:57:54.880Z,2.70
2023-02-03T13:00:40.564Z,1.23
2023-02-03T13:03:35.334Z,1.33
2023-02-03T13:06:09.386Z,1.13
2023-02-03T13:09:02.426Z,1.30
2023-02-03T13:11:40.673Z,1.48
2023-02-03T13:14:22.794Z,1.13
2023-02-03T13:17:06.729Z,1.35
2023-02-03T13:19:48.865Z,1.05
2023-02-03T13:22:17.302Z,1.40
2023-02-03T13:24:54.072Z,1.10
2023-02-03T13:27:35.900Z,1.38
2023-02-03T13:30:29.750Z,1.40
2023-02-03T13:33:15.133Z,1.35
2023-02-03T13:35:50.407Z,1.42
2023-02-03T13:38:36.812Z,1.45
2023-02-03T13:41:11.194Z,1.90
2023-02-03T13:43:43.859Z,1.90
2023-02-03T13:46:24.806Z,1.50
2023-02-03T13:48:52.682Z,1.50
2023-02-03T13:51:35.888Z,1.13
2023-02-03T13:54:12.346Z,1.38
2023-02-03T13:56:39.382Z,1.60
2023-02-03T13:59:20.422Z,1.52
2023-02-03T14:01:47.186Z,1.80
2023-02-03T14:04:25.903Z,2.05
2023-02-03T14:06:52.541Z,1.45
2023-02-03T14:09:22.840Z,2.38
2023-02-03T14:12:10.344Z,1.95
2023-02-03T14:14:36.979Z,1.48
2023-02-03T14:17:03.857Z,1.60
2023-02-03T14:19:30.590Z,1.60
2023-02-03T14:22:03.131Z,1.35
2023-02-03T14:24:50.338Z,1.42
2023-02-03T14:27:26.388Z,1.77
2023-02-03T14:30:07.661Z,1.50
2023-02-03T14:33:03.739Z,1.58
2023-02-03T14:35:34.778Z,1.35
2023-02-03T14:38:07.593Z,1.45
2023-02-03T14:40:40.479Z,1.40
2023-02-03T14:43:39.537Z,1.05
2023-02-03T14:46:25.370Z,1.83
2023-02-03T14:48:57.783Z,1.55
2023-02-03T14:51:51.011Z,1.98
2023-02-03T14:54:42.529Z,1.65
2023-02-03T14:57:21.703Z,1.73
2023-02-03T14:59:54.830Z,1.80
2023-02-03T15:02:25.801Z,1.40
2023-02-03T15:05:13.460Z,1.65
2023-02-03T15:07:45.277Z,1.63
2023-02-03T15:10:19.192Z,2.28
2023-02-03T15:12:54.103Z,1.63
2023-02-03T15:15:25.074Z,1.67
2023-02-03T15:17:54.171Z,1.67
2023-02-03T15:20:41.282Z,1.83
2023-02-03T15:23:24.553Z,2.72
2023-02-03T15:26:03.956Z,1.90
2023-02-03T15:28:30.878Z,2.67
2023-02-03T15:33:24.467Z,1.60
2023-02-03T15:35:58.587Z,1.75
2023-02-03T15:38:30.008Z,2.05
2023-02-03T15:40:58.884Z,2.17
2023-02-03T15:43:42.208Z,1.85
2023-02-03T15:46:21.775Z,1.73
2023-02-03T15:49:17.105Z,2.47
2023-02-03T15:51:52.221Z,2.03
2023-02-03T15:54:30.219Z,1.65
2023-02-03T15:57:00.426Z,2.13
2023-02-03T15:59:31.523Z,1.67
2023-02-03T16:02:00.866Z,1.75
2023-02-03T16:04:27.744Z,1.50
2023-02-03T16:12:26.753Z,1.90
2023-02-03T16:14:55.093Z,2.00
2023-02-03T16:17:29.645Z,1.92
2023-02-03T16:20:11.750Z,1.88
2023-02-03T16:22:44.568Z,1.67
2023-02-03T16:25:26.518Z,2.00
2023-02-03T16:28:32.416Z,2.17
2023-02-03T16:31:39.381Z,3.15
2023-02-03T16:34:33.748Z,1.70
2023-02-03T16:37:19.111Z,2.10
2023-02-03T16:40:04.873Z,1.92
2023-02-03T16:42:58.610Z,2.05
2023-02-03T16:45:44.593Z,2.45
2023-02-03T16:48:30.962Z,2.20
2023-02-03T16:51:04.311Z,1.70
2023-02-03T16:53:33.319Z,1.65
2023-02-03T16:56:04.172Z,2.13
2023-02-03T16:58:31.319Z,1.88
2023-02-03T17:01:00.510Z,1.67
2023-02-03T17:03:28.530Z,1.50
2023-02-03T17:05:56.921Z,1.65
2023-02-03T17:08:25.740Z,2.65
2023-02-03T17:10:52.598Z,1.85
2023-02-03T17:13:21.160Z,2.08
2023-02-03T17:15:52.473Z,2.03
2023-02-03T17:18:19.743Z,3.28
2023-02-03T17:20:46.889Z,2.38
2023-02-03T17:23:16.039Z,2.17
2023-02-03T17:25:45.160Z,2.30
2023-02-03T17:28:13.875Z,2.40
2023-02-03T17:30:40.847Z,2.13
2023-02-03T17:33:14.583Z,2.30
2023-02-03T17:35:43.138Z,3.20
2023-02-03T17:38:11.683Z,2.45
2023-02-03T17:54:30.714Z,3.10
2023-02-03T17:56:57.381Z,2.22
2023-02-03T18:01:50.659Z,2.03
2023-02-03T18:04:17.293Z,2.90
2023-02-03T18:06:44.647Z,1.88
2023-02-03T18:09:14.048Z,1.45
2023-02-03T18:11:41.104Z,1.77
2023-02-03T18:14:08.139Z,2.05
2023-02-03T18:16:35.998Z,2.13
2023-02-03T18:19:08.802Z,1.60
2023-02-03T18:21:38.530Z,1.75
2023-02-03T18:24:05.838Z,2.00
2023-02-03T18:26:36.245Z,1.88
2023-02-03T18:29:05.095Z,2.20
2023-02-03T18:31:32.238Z,1.85
2023-02-03T18:34:03.106Z,1.65
2023-02-03T18:36:30.089Z,2.70
2023-02-03T18:38:57.556Z,2.50
2023-02-03T18:41:25.454Z,1.55
2023-02-03T18:43:52.630Z,1.88
2023-02-03T18:46:25.272Z,1.92
2023-02-03T18:48:52.675Z,1.58
2023-02-03T18:51:20.817Z,1.63
2023-02-03T18:53:51.670Z,1.50
2023-02-03T18:56:24.651Z,1.80
2023-02-03T18:58:51.588Z,1.52
2023-02-03T19:01:22.409Z,1.75
2023-02-03T19:03:49.435Z,2.55
2023-02-03T19:06:16.754Z,2.03
2023-02-03T19:08:43.508Z,1.40
2023-02-03T19:11:10.735Z,1.80
2023-02-03T19:13:37.800Z,1.65
2023-02-03T19:16:04.976Z,2.20
2023-02-03T19:18:32.847Z,1.80
2023-02-03T19:20:59.551Z,1.60
2023-02-03T19:23:26.594Z,1.60
2023-02-03T19:25:54.175Z,1.50
2023-02-03T19:28:30.410Z,2.33
2023-02-03T19:31:09.258Z,2.00
2023-02-03T19:33:37.297Z,1.77
2023-02-03T19:36:05.558Z,1.58
2023-02-03T19:38:37.472Z,1.88
2023-02-03T19:41:04.356Z,1.85
2023-02-03T19:45:58.555Z,1.83
2023-02-03T19:48:25.397Z,1.90
2023-02-03T19:50:52.112Z,2.15
2023-02-03T19:53:18.936Z,1.92
2023-02-03T19:55:46.875Z,1.42
2023-02-03T19:58:14.464Z,2.58
2023-02-03T20:00:42.192Z,1.92
2023-02-03T20:03:09.842Z,2.00
2023-02-03T20:05:36.993Z,1.77
2023-02-03T20:08:04.577Z,1.90
2023-02-03T20:10:32.726Z,2.75
2023-02-03T20:13:00.311Z,2.20
2023-02-03T20:15:27.177Z,1.60
2023-02-03T20:20:27.092Z,2.15
2023-02-03T20:22:54.015Z,1.52
2023-02-03T20:25:20.990Z,1.92
2023-02-03T20:27:47.904Z,2.05
2023-02-03T20:30:14.803Z,1.67
2023-02-03T20:35:09.931Z,2.30
2023-02-03T20:37:36.633Z,1.85
2023-02-03T20:42:34.082Z,1.60
2023-02-03T20:45:00.915Z,1.70
2023-02-03T20:49:54.621Z,1.35
2023-02-03T20:52:21.483Z,1.40
2023-02-03T20:57:18.007Z,1.40
2023-02-03T20:59:45.916Z,1.58
2023-02-03T21:02:45.699Z,1.63
2023-02-03T21:05:25.041Z,1.45
2023-02-03T21:07:51.851Z,1.88
2023-02-03T21:12:48.031Z,1.83
2023-02-03T21:15:28.976Z,1.80
2023-02-03T21:17:56.062Z,1.90
2023-02-03T21:20:31.438Z,1.95
2023-02-03T21:22:58.967Z,1.90
2023-02-03T21:25:28.663Z,2.50
2023-02-03T21:27:57.954Z,3.28
2023-02-03T21:30:28.426Z,2.20
2023-02-03T21:32:55.485Z,1.98
2023-02-03T21:38:02.548Z,2.10
2023-02-03T21:40:31.005Z,1.80
2023-02-03T21:42:58.770Z,2.50
2023-02-03T21:45:44.647Z,2.70
2023-02-03T21:48:24.505Z,2.65
2023-02-03T21:50:52.202Z,2.60
2023-02-03T21:53:26.587Z,2.10
2023-02-03T21:55:54.071Z,2.65
2023-02-03T21:58:40.081Z,2.13
2023-02-03T22:01:07.864Z,2.08
2023-02-03T22:03:40.586Z,2.50
2023-02-03T22:06:12.939Z,2.42
2023-02-03T22:08:42.011Z,1.70
2023-02-03T22:11:09.350Z,2.28
2023-02-03T22:13:36.260Z,1.88
2023-02-03T22:16:03.831Z,2.03
2023-02-03T22:18:31.037Z,1.80
2023-02-03T22:20:57.719Z,1.63
2023-02-03T22:25:51.287Z,2.00
2023-02-03T22:28:18.160Z,1.48
2023-02-03T22:30:44.880Z,1.45
2023-02-03T22:35:38.164Z,2.00
2023-02-03T22:38:04.903Z,1.27
2023-02-03T22:42:59.443Z,1.53
2023-02-03T22:45:26.070Z,1.33
2023-02-03T22:47:52.719Z,1.42
2023-02-03T22:50:27.154Z,1.60
2023-02-03T22:53:03.909Z,1.35
2023-02-03T22:55:31.078Z,1.63
2023-02-03T22:57:58.992Z,1.85
2023-02-03T23:00:26.382Z,1.60
2023-02-03T23:02:53.261Z,1.35
2023-02-03T23:07:47.311Z,1.80
2023-02-03T23:10:19.524Z,1.67
2023-02-03T23:12:46.263Z,1.58
2023-02-03T23:17:40.626Z,1.80
2023-02-03T23:20:09.273Z,1.58
2023-02-03T23:22:35.941Z,1.40
2023-02-03T23:25:03.368Z,1.30
2023-02-03T23:27:30.407Z,1.65
2023-02-03T23:29:57.263Z,1.73
2023-02-03T23:32:24.007Z,1.48
2023-02-03T23:37:36.182Z,1.40
2023-02-03T23:42:30.303Z,1.60
2023-02-03T23:44:57.053Z,2.00
2023-02-03T23:49:50.375Z,1.10
2023-02-03T23:52:17.038Z,1.52
2023-02-03T23:54:43.718Z,1.90
2023-02-03T23:59:37.586Z,1.80
